Time;durP1;ratioP1;P1;durP2;ratioP2;P2;SDS_P1;SDS_P2;PMS_P1;PMS_P2;Temp;Humidity;BMP_temperature;BMP_pressure;BME280_temperature;BME280_humidity;BME280_pressure;Samples;Min_cycle;Max_cycle;Signal;HPM_P1;HPM_P2
2024/03/30 00:01:47;;;;;;;54.13;9.65;;;11.50;99.90;;;;;;5066337;28;20154;-40
2024/03/30 00:04:13;;;;;;;55.15;10.52;;;11.50;99.90;;;;;;5067860;28;20040;-47
2024/03/30 00:06:40;;;;;;;59.35;11.90;;;11.70;99.90;;;;;;5070668;28;20052;-50
2024/03/30 00:09:06;;;;;;;60.95;10.85;;;11.70;99.90;;;;;;5062121;28;20051;-43
2024/03/30 00:11:33;;;;;;;47.88;10.90;;;11.80;99.90;;;;;;5082939;28;20040;-47
2024/03/30 00:13:59;;;;;;;51.20;12.30;;;11.80;99.90;;;;;;5068459;28;20044;-48
2024/03/30 00:16:25;;;;;;;68.40;12.93;;;11.80;99.90;;;;;;5067088;28;20052;-47
2024/03/30 00:18:53;;;;;;;61.13;12.68;;;11.90;99.90;;;;;;5072458;28;20032;-44
2024/03/30 00:21:19;;;;;;;68.57;12.68;;;11.90;99.90;;;;;;5084240;28;20131;-46
2024/03/30 00:23:46;;;;;;;68.70;12.15;;;11.90;99.90;;;;;;5069215;28;20043;-44
2024/03/30 00:26:12;;;;;;;90.47;13.82;;;12.00;99.90;;;;;;5067955;28;20044;-44
2024/03/30 00:28:38;;;;;;;73.13;13.57;;;12.00;99.90;;;;;;5069055;28;20507;-45
2024/03/30 00:31:04;;;;;;;69.50;13.27;;;12.00;99.90;;;;;;5083985;28;20043;-48
2024/03/30 00:33:30;;;;;;;81.13;16.08;;;12.10;99.90;;;;;;5072208;28;20098;-45
2024/03/30 00:35:57;;;;;;;73.13;15.27;;;12.10;99.90;;;;;;5065035;28;20545;-45
2024/03/30 00:38:24;;;;;;;69.75;14.55;;;12.10;99.90;;;;;;5070847;28;20040;-43
2024/03/30 00:40:50;;;;;;;76.40;12.95;;;12.20;99.90;;;;;;5063266;28;20112;-45
2024/03/30 00:43:16;;;;;;;101.97;17.75;;;12.20;99.90;;;;;;5069568;28;20049;-46
2024/03/30 00:45:43;;;;;;;87.55;15.60;;;12.30;99.90;;;;;;5070823;28;20585;-46
2024/03/30 00:48:09;;;;;;;75.07;15.57;;;12.30;99.90;;;;;;5067503;28;20040;-43
2024/03/30 00:50:35;;;;;;;100.15;16.30;;;12.30;99.90;;;;;;5079540;28;20218;-47
2024/03/30 00:53:04;;;;;;;86.88;15.75;;;12.30;99.90;;;;;;5063266;28;20040;-45
2024/03/30 00:55:31;;;;;;;90.40;15.80;;;12.30;99.90;;;;;;5064449;28;20037;-43
2024/03/30 00:57:58;;;;;;;90.57;15.40;;;12.30;99.90;;;;;;5067454;28;20044;-47
2024/03/30 01:00:24;;;;;;;83.93;15.85;;;12.30;99.90;;;;;;5066824;28;20611;-43
2024/03/30 01:02:50;;;;;;;86.28;16.13;;;12.30;99.90;;;;;;5061259;28;20044;-45
2024/03/30 01:05:18;;;;;;;80.55;17.17;;;12.30;99.90;;;;;;5066113;28;20068;-49
2024/03/30 01:07:44;;;;;;;101.10;17.00;;;12.30;99.90;;;;;;5047900;28;20412;-48
2024/03/30 01:10:11;;;;;;;86.25;17.15;;;12.30;99.90;;;;;;5066230;28;20047;-48
2024/03/30 01:12:38;;;;;;;114.40;19.35;;;12.30;99.90;;;;;;5072204;28;20466;-42
2024/03/30 01:15:05;;;;;;;104.32;17.48;;;12.40;99.90;;;;;;5071893;28;20044;-44
2024/03/30 01:17:34;;;;;;;89.50;17.60;;;12.40;99.90;;;;;;5067182;28;20045;-46
2024/03/30 01:20:06;;;;;;;93.28;18.35;;;12.40;99.90;;;;;;5066656;28;20051;-43
2024/03/30 01:22:34;;;;;;;92.50;17.35;;;12.30;99.90;;;;;;5064891;28;20090;-41
2024/03/30 01:25:02;;;;;;;93.57;17.45;;;12.30;99.90;;;;;;5062510;28;20032;-42
2024/03/30 01:27:29;;;;;;;97.95;19.35;;;12.30;99.90;;;;;;5051939;28;20090;-44
2024/03/30 01:30:02;;;;;;;92.07;18.17;;;12.30;99.90;;;;;;5073064;28;20052;-45
2024/03/30 01:32:29;;;;;;;115.38;20.17;;;12.20;99.90;;;;;;5070143;28;20433;-45
2024/03/30 01:34:55;;;;;;;111.57;19.60;;;12.20;99.90;;;;;;5074714;28;20036;-45
2024/03/30 01:37:27;;;;;;;117.18;19.17;;;12.20;99.90;;;;;;5070127;28;20052;-46
2024/03/30 01:39:56;;;;;;;111.13;19.35;;;12.10;99.90;;;;;;5072250;28;20054;-48
2024/03/30 01:42:29;;;;;;;101.30;18.35;;;12.10;99.90;;;;;;5072128;28;20511;-44
2024/03/30 01:44:55;;;;;;;115.72;19.40;;;12.10;99.90;;;;;;5091915;28;20520;-44
2024/03/30 01:47:22;;;;;;;85.18;18.23;;;12.10;99.90;;;;;;5070214;28;20595;-42
2024/03/30 01:49:53;;;;;;;95.40;18.95;;;12.10;99.90;;;;;;5079234;28;20078;-41
2024/03/30 01:52:21;;;;;;;108.93;18.40;;;12.10;99.90;;;;;;5077999;28;20110;-44
2024/03/30 01:54:48;;;;;;;103.63;18.70;;;12.10;99.90;;;;;;5075791;28;20048;-45
2024/03/30 01:57:15;;;;;;;92.80;18.10;;;12.10;99.90;;;;;;5077120;28;20124;-45
2024/03/30 01:59:41;;;;;;;113.63;22.08;;;12.00;99.90;;;;;;5077040;28;20053;-41
2024/03/30 02:02:09;;;;;;;117.13;19.77;;;12.00;99.90;;;;;;5078875;28;20040;-45
2024/03/30 02:04:37;;;;;;;78.70;16.52;;;11.90;99.90;;;;;;5078693;28;20036;-44
2024/03/30 02:07:04;;;;;;;106.97;17.80;;;11.90;99.90;;;;;;5079025;28;20051;-44
2024/03/30 02:09:33;;;;;;;122.32;21.80;;;11.80;99.90;;;;;;5080361;28;20066;-47
2024/03/30 02:11:59;;;;;;;116.63;21.27;;;11.80;99.90;;;;;;5061794;28;20385;-43
2024/03/30 02:14:25;;;;;;;101.63;18.30;;;11.80;99.90;;;;;;5080392;28;20060;-42
2024/03/30 02:16:51;;;;;;;116.43;22.70;;;11.70;99.90;;;;;;5083105;28;20108;-43
2024/03/30 02:19:19;;;;;;;110.45;20.15;;;11.80;99.90;;;;;;5077168;28;20513;-44
2024/03/30 02:21:45;;;;;;;116.95;20.90;;;11.70;99.90;;;;;;5076088;28;20174;-44
2024/03/30 02:24:11;;;;;;;112.55;20.63;;;11.80;99.90;;;;;;5067211;28;20044;-44
2024/03/30 02:26:37;;;;;;;95.97;18.90;;;11.80;99.90;;;;;;5076138;28;20074;-44
2024/03/30 02:29:06;;;;;;;118.32;19.45;;;11.80;99.90;;;;;;5074005;28;20040;-48
2024/03/30 02:31:32;;;;;;;96.18;16.95;;;11.80;99.90;;;;;;5094506;28;20044;-44
2024/03/30 02:33:59;;;;;;;113.85;21.42;;;11.80;99.90;;;;;;5074908;28;20062;-45
2024/03/30 02:36:26;;;;;;;113.50;20.48;;;11.80;99.90;;;;;;5076144;28;20048;-45
2024/03/30 02:38:53;;;;;;;111.88;20.50;;;11.80;99.90;;;;;;5080345;28;20074;-45
2024/03/30 02:41:19;;;;;;;106.13;20.58;;;11.80;99.90;;;;;;5076801;28;20094;-41
2024/03/30 02:43:45;;;;;;;120.07;20.65;;;11.70;99.90;;;;;;5078054;28;20069;-48
2024/03/30 02:46:11;;;;;;;109.45;20.92;;;11.70;99.90;;;;;;5080675;28;20035;-45
2024/03/30 02:48:37;;;;;;;114.10;20.63;;;11.70;99.90;;;;;;5058611;28;20040;-43
2024/03/30 02:51:03;;;;;;;105.18;19.15;;;11.60;99.90;;;;;;5079624;28;20581;-43
2024/03/30 02:53:29;;;;;;;91.25;17.80;;;11.60;99.90;;;;;;5075323;28;20036;-44
2024/03/30 02:55:55;;;;;;;115.10;21.98;;;11.60;99.90;;;;;;5080915;28;20063;-43
2024/03/30 02:58:21;;;;;;;104.93;19.55;;;11.60;99.90;;;;;;5074474;28;20062;-42
2024/03/30 03:00:47;;;;;;;103.60;19.02;;;11.50;99.90;;;;;;5076996;28;20054;-43
2024/03/30 03:03:13;;;;;;;105.13;18.80;;;11.50;99.90;;;;;;5072775;28;20060;-45
2024/03/30 03:05:39;;;;;;;127.45;22.20;;;11.50;99.90;;;;;;5081779;28;20111;-44
2024/03/30 03:08:05;;;;;;;109.03;19.48;;;11.50;99.90;;;;;;5071188;28;20044;-42
2024/03/30 03:10:31;;;;;;;107.15;19.52;;;11.50;99.90;;;;;;5081145;28;20413;-45
2024/03/30 03:12:57;;;;;;;97.97;19.63;;;11.60;99.90;;;;;;5073668;28;20067;-46
2024/03/30 03:15:23;;;;;;;128.57;23.42;;;11.60;99.90;;;;;;5078801;28;20051;-43
2024/03/30 03:17:49;;;;;;;123.50;23.00;;;11.60;99.90;;;;;;5076211;28;20192;-46
2024/03/30 03:20:15;;;;;;;135.10;22.85;;;11.70;99.90;;;;;;5079498;28;20127;-45
2024/03/30 03:22:41;;;;;;;124.72;22.50;;;11.70;99.90;;;;;;5075725;28;20040;-40
2024/03/30 03:25:07;;;;;;;124.95;23.10;;;11.80;99.90;;;;;;5079888;28;20331;-45
2024/03/30 03:27:33;;;;;;;116.38;21.77;;;11.90;99.90;;;;;;5076594;28;20067;-44
2024/03/30 03:29:59;;;;;;;149.85;24.92;;;12.00;99.90;;;;;;5082393;28;20135;-46
2024/03/30 03:32:25;;;;;;;120.88;23.17;;;12.00;99.90;;;;;;5078517;28;20066;-48
2024/03/30 03:34:51;;;;;;;125.30;23.35;;;12.10;99.90;;;;;;5078239;28;20055;-47
2024/03/30 03:37:17;;;;;;;132.10;22.20;;;12.10;99.90;;;;;;5078105;28;20586;-49
2024/03/30 03:39:43;;;;;;;133.57;22.77;;;12.10;99.90;;;;;;5082576;28;20036;-44
2024/03/30 03:42:09;;;;;;;127.68;23.60;;;12.10;99.90;;;;;;5078393;28;20051;-45
2024/03/30 03:44:35;;;;;;;145.20;21.95;;;12.10;99.90;;;;;;5084219;28;20063;-46
2024/03/30 03:47:01;;;;;;;132.25;21.80;;;12.20;99.90;;;;;;5079168;28;20063;-46
2024/03/30 03:49:27;;;;;;;144.45;24.83;;;12.20;99.90;;;;;;5087998;28;20040;-41
2024/03/30 03:51:55;;;;;;;118.57;21.48;;;12.20;99.90;;;;;;5077698;28;20082;-44
2024/03/30 03:54:21;;;;;;;117.63;21.50;;;12.20;99.90;;;;;;5075639;28;20508;-46
2024/03/30 03:56:48;;;;;;;95.13;18.75;;;12.20;99.90;;;;;;5077106;28;20070;-45
2024/03/30 03:59:13;;;;;;;114.00;22.55;;;12.20;99.90;;;;;;5081055;28;20035;-41
2024/03/30 04:01:40;;;;;;;108.05;19.70;;;12.20;99.90;;;;;;5078489;28;20643;-45
2024/03/30 04:04:05;;;;;;;140.88;25.08;;;12.20;99.90;;;;;;5081257;28;20043;-43
2024/03/30 04:06:31;;;;;;;120.93;19.83;;;12.20;99.90;;;;;;5077894;28;20048;-45
2024/03/30 04:08:57;;;;;;;124.95;21.48;;;12.20;99.90;;;;;;5095982;28;20044;-45
2024/03/30 04:11:23;;;;;;;120.95;22.95;;;12.10;99.90;;;;;;5078132;28;20048;-46
2024/03/30 04:13:49;;;;;;;118.72;23.30;;;12.10;99.90;;;;;;5080341;28;20044;-44
2024/03/30 04:16:16;;;;;;;120.80;21.70;;;12.10;99.90;;;;;;5078198;28;20052;-44
2024/03/30 04:18:43;;;;;;;110.30;20.98;;;12.10;99.90;;;;;;5079566;28;20059;-44
2024/03/30 04:21:09;;;;;;;118.22;23.33;;;12.10;99.90;;;;;;5071996;28;20114;-40
2024/03/30 04:23:35;;;;;;;122.10;21.17;;;12.10;99.90;;;;;;5079717;28;20524;-43
2024/03/30 04:26:10;;;;;;;100.45;20.50;;;12.00;99.90;;;;;;5059059;28;20035;-42
2024/03/30 04:28:36;;;;;;;101.82;19.85;;;12.00;99.90;;;;;;5077313;28;20044;-42
2024/03/30 04:31:05;;;;;;;119.90;21.38;;;12.00;99.90;;;;;;5072897;28;20044;-45
2024/03/30 04:33:31;;;;;;;102.18;20.17;;;11.90;99.90;;;;;;5071383;28;20472;-41
2024/03/30 04:36:02;;;;;;;113.57;21.65;;;11.90;99.90;;;;;;5070743;28;20117;-44
2024/03/30 04:38:29;;;;;;;81.68;17.50;;;11.90;99.90;;;;;;5072810;28;20055;-45
2024/03/30 04:41:06;;;;;;;102.68;19.35;;;12.00;99.90;;;;;;5067933;28;20086;-43
2024/03/30 04:43:36;;;;;;;110.13;20.40;;;12.00;99.90;;;;;;5077334;28;20048;-43
2024/03/30 04:46:06;;;;;;;121.60;20.75;;;12.00;99.90;;;;;;5072324;28;20046;-44
2024/03/30 04:48:33;;;;;;;102.18;21.48;;;12.10;99.90;;;;;;5073461;28;20431;-41
2024/03/30 04:51:02;;;;;;;100.18;20.10;;;12.10;99.90;;;;;;5071773;28;20122;-42
2024/03/30 04:53:32;;;;;;;108.57;21.13;;;12.20;99.90;;;;;;5072148;28;20103;-45
2024/03/30 04:56:03;;;;;;;120.28;21.17;;;12.10;99.90;;;;;;5073897;28;20539;-45
2024/03/30 04:58:33;;;;;;;126.90;23.20;;;12.10;99.90;;;;;;5075323;28;20427;-47
2024/03/30 05:01:02;;;;;;;117.30;21.50;;;12.20;99.90;;;;;;5075781;28;20039;-46
2024/03/30 05:03:28;;;;;;;100.82;21.10;;;12.20;99.90;;;;;;5073775;28;20040;-43
2024/03/30 05:05:55;;;;;;;105.82;20.38;;;12.10;99.90;;;;;;5074955;28;20051;-44
2024/03/30 05:08:21;;;;;;;105.88;22.50;;;12.10;99.90;;;;;;5070791;28;20040;-43
2024/03/30 05:10:47;;;;;;;126.95;21.88;;;12.10;99.90;;;;;;5075155;28;20043;-46
2024/03/30 05:13:14;;;;;;;108.15;21.98;;;12.20;99.90;;;;;;5067900;28;20417;-46
2024/03/30 05:15:41;;;;;;;108.72;22.17;;;12.20;99.90;;;;;;5070356;28;20052;-48
2024/03/30 05:18:11;;;;;;;111.93;21.02;;;12.10;99.90;;;;;;5072490;28;20503;-46
2024/03/30 05:20:51;;;;;;;107.30;20.17;;;12.20;99.90;;;;;;5056384;28;20109;-42
2024/03/30 05:23:38;;;;;;;110.55;22.52;;;12.20;99.90;;;;;;5073882;28;20102;-45
2024/03/30 05:26:06;;;;;;;112.05;20.40;;;12.10;99.90;;;;;;5069806;28;20074;-44
2024/03/30 05:28:36;;;;;;;104.63;18.77;;;12.10;99.90;;;;;;5070465;28;20036;-46
2024/03/30 05:31:18;;;;;;;120.40;21.73;;;12.00;99.90;;;;;;5074716;28;20459;-44
2024/03/30 05:33:44;;;;;;;106.78;20.20;;;12.00;99.90;;;;;;5075965;28;20059;-45
2024/03/30 05:36:10;;;;;;;103.30;19.90;;;12.00;99.90;;;;;;5070647;28;20040;-44
2024/03/30 05:38:36;;;;;;;106.38;18.73;;;12.00;99.90;;;;;;5073889;28;20071;-45
2024/03/30 05:41:02;;;;;;;112.40;20.77;;;12.00;99.90;;;;;;5082518;28;20472;-45
2024/03/30 05:43:28;;;;;;;115.07;22.38;;;12.00;99.90;;;;;;5078434;28;20051;-46
2024/03/30 05:45:56;;;;;;;110.80;21.15;;;12.10;99.90;;;;;;5072467;28;20044;-44
2024/03/30 05:48:23;;;;;;;122.70;22.00;;;12.10;99.90;;;;;;5075960;28;20052;-44
2024/03/30 05:50:49;;;;;;;94.13;20.20;;;12.10;99.90;;;;;;5073515;28;20073;-48
2024/03/30 05:53:15;;;;;;;130.35;22.23;;;12.20;99.90;;;;;;5070799;28;20047;-44
2024/03/30 05:55:41;;;;;;;118.70;20.73;;;12.20;99.90;;;;;;5071796;28;20389;-47
2024/03/30 05:58:14;;;;;;;112.57;20.10;;;12.30;99.90;;;;;;5072508;28;20405;-45
2024/03/30 06:00:39;;;;;;;103.45;20.95;;;12.30;99.90;;;;;;5072478;28;20047;-43
2024/03/30 06:03:07;;;;;;;97.78;20.20;;;12.30;99.90;;;;;;5062923;28;20130;-42
2024/03/30 06:05:34;;;;;;;94.70;21.88;;;12.40;99.90;;;;;;5068818;28;20048;-43
2024/03/30 06:08:00;;;;;;;105.57;20.92;;;12.40;99.90;;;;;;5064500;28;20408;-42
2024/03/30 06:10:26;;;;;;;112.82;21.95;;;12.40;99.90;;;;;;5076027;28;20075;-46
2024/03/30 06:12:52;;;;;;;105.57;24.42;;;12.50;99.90;;;;;;5073406;28;20047;-48
2024/03/30 06:15:18;;;;;;;119.85;21.52;;;12.50;99.90;;;;;;5087484;28;20047;-46
2024/03/30 06:17:44;;;;;;;97.10;19.92;;;12.60;99.90;;;;;;5079951;28;20050;-44
2024/03/30 06:20:10;;;;;;;118.30;22.67;;;12.70;99.90;;;;;;5073299;28;20074;-44
2024/03/30 06:22:37;;;;;;;112.68;21.67;;;12.70;99.90;;;;;;5075160;28;20036;-42
2024/03/30 06:25:04;;;;;;;89.95;18.58;;;12.80;99.90;;;;;;5083490;28;20050;-47
2024/03/30 06:27:34;;;;;;;119.50;20.85;;;12.80;99.90;;;;;;5077406;28;20037;-48
2024/03/30 06:30:00;;;;;;;91.43;19.73;;;12.80;99.90;;;;;;5059230;28;20093;-45
2024/03/30 06:32:26;;;;;;;94.10;19.70;;;12.70;99.90;;;;;;5076786;28;20152;-42
2024/03/30 06:34:52;;;;;;;116.40;20.95;;;12.80;99.90;;;;;;5078045;28;20040;-43
2024/03/30 06:37:18;;;;;;;76.28;17.70;;;12.70;99.90;;;;;;5074011;28;20043;-47
2024/03/30 06:45:13;;;;;;;115.80;21.75;;;12.70;99.90;;;;;;5074534;28;20040;-47
2024/03/30 06:47:39;;;;;;;104.88;21.00;;;12.70;99.90;;;;;;5081549;28;20523;-42
2024/03/30 06:50:07;;;;;;;100.03;19.77;;;12.70;99.90;;;;;;5061158;28;20045;-41
2024/03/30 06:52:32;;;;;;;112.88;22.42;;;12.70;99.90;;;;;;5076267;28;20052;-47
2024/03/30 06:54:59;;;;;;;122.22;23.45;;;12.70;99.90;;;;;;5071975;28;20521;-44
2024/03/30 06:57:25;;;;;;;115.47;23.27;;;12.80;99.90;;;;;;5078411;28;20062;-48
2024/03/30 06:59:51;;;;;;;111.78;22.73;;;12.80;99.90;;;;;;5076442;28;20431;-48
2024/03/30 07:02:17;;;;;;;87.38;20.73;;;12.90;99.90;;;;;;5074188;28;20036;-49
2024/03/30 07:04:43;;;;;;;110.90;22.02;;;13.00;99.90;;;;;;5086117;28;20458;-42
2024/03/30 07:07:09;;;;;;;105.97;20.90;;;13.10;99.90;;;;;;5070935;28;20052;-43
2024/03/30 07:09:35;;;;;;;98.00;21.92;;;13.30;99.90;;;;;;5081912;28;20044;-48
2024/03/30 07:12:01;;;;;;;95.43;17.70;;;13.40;99.90;;;;;;5074524;28;20071;-48
2024/03/30 07:14:27;;;;;;;83.53;19.63;;;13.50;99.90;;;;;;5074418;28;20059;-49
2024/03/30 07:16:55;;;;;;;103.40;20.35;;;13.70;99.90;;;;;;5077639;28;20134;-47
2024/03/30 07:19:22;;;;;;;111.10;21.17;;;13.80;99.90;;;;;;5074834;28;20048;-46
2024/03/30 07:21:48;;;;;;;87.32;18.20;;;14.00;99.90;;;;;;5075550;28;20048;-47
2024/03/30 07:24:15;;;;;;;72.25;17.10;;;14.10;99.90;;;;;;5071784;28;20111;-46
2024/03/30 07:26:43;;;;;;;95.47;19.35;;;14.30;99.90;;;;;;5075373;28;20134;-49
2024/03/30 07:29:09;;;;;;;86.88;18.65;;;14.40;99.90;;;;;;5062872;28;20119;-44
2024/03/30 07:31:35;;;;;;;112.25;20.30;;;14.60;99.90;;;;;;5076939;28;20043;-48
2024/03/30 07:34:01;;;;;;;91.13;18.67;;;14.70;99.90;;;;;;5078900;28;20047;-43
2024/03/30 07:36:27;;;;;;;88.18;17.80;;;14.80;99.90;;;;;;5080641;28;20040;-41
2024/03/30 07:38:53;;;;;;;104.95;19.42;;;14.90;99.90;;;;;;5080885;28;20673;-43
2024/03/30 07:41:19;;;;;;;88.72;18.25;;;15.10;99.90;;;;;;5077095;28;20040;-45
2024/03/30 07:43:45;;;;;;;63.05;15.88;;;15.20;99.90;;;;;;5076426;28;20093;-44
2024/03/30 07:46:11;;;;;;;79.95;17.23;;;15.40;99.90;;;;;;5073681;28;20102;-45
2024/03/30 07:48:37;;;;;;;69.55;16.08;;;15.50;99.90;;;;;;5078462;28;20074;-46
2024/03/30 07:51:03;;;;;;;83.47;17.73;;;15.70;99.90;;;;;;5076572;28;20051;-45
2024/03/30 07:53:29;;;;;;;91.55;19.08;;;15.80;99.90;;;;;;5076064;28;20048;-43
2024/03/30 07:55:55;;;;;;;97.35;20.15;;;16.00;99.90;;;;;;5075706;28;20039;-46
2024/03/30 07:58:21;;;;;;;99.50;21.48;;;16.10;99.90;;;;;;5076288;28;20082;-47
2024/03/30 08:00:47;;;;;;;81.63;18.00;;;16.30;99.90;;;;;;5077156;28;20111;-46
2024/03/30 08:03:13;;;;;;;79.53;18.23;;;16.50;99.90;;;;;;5072145;28;20048;-45
2024/03/30 08:05:39;;;;;;;83.53;18.23;;;16.60;99.90;;;;;;5077351;28;20051;-45
2024/03/30 08:08:05;;;;;;;78.97;17.20;;;16.80;99.90;;;;;;5075635;28;20040;-46
2024/03/30 08:10:31;;;;;;;101.72;20.02;;;17.00;99.90;;;;;;5078253;28;20151;-45
2024/03/30 08:12:57;;;;;;;82.25;18.25;;;17.10;99.90;;;;;;5074408;28;20048;-47
2024/03/30 08:15:23;;;;;;;116.10;19.83;;;17.20;99.90;;;;;;5092916;28;20051;-41
2024/03/30 08:17:49;;;;;;;60.53;14.70;;;17.30;99.90;;;;;;5073874;28;20050;-44
2024/03/30 08:20:15;;;;;;;88.85;16.85;;;17.40;99.90;;;;;;5078666;28;20138;-42
2024/03/30 08:22:41;;;;;;;77.25;16.83;;;17.60;99.90;;;;;;5075598;28;20036;-41
2024/03/30 08:25:07;;;;;;;75.03;15.82;;;17.60;99.90;;;;;;5072529;28;20048;-47
2024/03/30 08:27:33;;;;;;;76.18;17.75;;;17.80;99.90;;;;;;5076685;28;20085;-45
2024/03/30 08:30:00;;;;;;;75.15;16.90;;;17.80;99.90;;;;;;5075536;28;20047;-48
2024/03/30 08:32:26;;;;;;;74.70;15.55;;;18.00;99.90;;;;;;5076216;28;20040;-46
2024/03/30 08:34:53;;;;;;;92.03;17.20;;;18.20;99.90;;;;;;5076113;28;20063;-45
2024/03/30 08:37:19;;;;;;;71.05;15.63;;;18.30;99.90;;;;;;5075109;28;20565;-49
2024/03/30 08:39:45;;;;;;;66.38;15.80;;;18.40;99.90;;;;;;5076405;28;20047;-47
2024/03/30 08:42:11;;;;;;;74.22;15.43;;;18.70;98.90;;;;;;5069692;28;20040;-48
2024/03/30 08:44:37;;;;;;;68.03;17.33;;;18.80;98.00;;;;;;5075511;28;20092;-49
2024/03/30 08:47:03;;;;;;;82.40;15.70;;;19.10;97.70;;;;;;5076770;28;20084;-46
2024/03/30 08:49:29;;;;;;;65.70;15.43;;;19.30;96.70;;;;;;5072147;28;20044;-42
2024/03/30 08:51:55;;;;;;;87.07;17.45;;;19.30;94.80;;;;;;5076304;28;20055;-45
2024/03/30 08:54:21;;;;;;;80.68;16.42;;;19.50;94.60;;;;;;5082885;28;20047;-43
2024/03/30 08:56:47;;;;;;;73.47;15.98;;;19.50;93.40;;;;;;5079958;28;20047;-45
2024/03/30 08:59:13;;;;;;;63.60;14.98;;;19.70;93.80;;;;;;5082806;28;20048;-44
2024/03/30 09:01:39;;;;;;;69.60;14.45;;;19.90;92.20;;;;;;5071098;28;20097;-45
2024/03/30 09:04:05;;;;;;;71.45;15.65;;;20.10;90.80;;;;;;5079523;28;20043;-47
2024/03/30 09:06:31;;;;;;;68.75;15.23;;;20.20;90.10;;;;;;5075589;28;21112;-44
2024/03/30 09:08:57;;;;;;;70.47;14.68;;;20.50;90.00;;;;;;5072707;28;20036;-46
2024/03/30 09:11:23;;;;;;;66.40;14.07;;;20.50;85.90;;;;;;5074392;28;20445;-43
2024/03/30 09:13:49;;;;;;;63.08;14.93;;;20.70;83.60;;;;;;5068896;28;20572;-49
2024/03/30 09:16:15;;;;;;;77.78;14.02;;;20.90;83.40;;;;;;5074383;28;20125;-49
2024/03/30 09:18:41;;;;;;;71.60;15.13;;;21.20;82.90;;;;;;5076288;28;20528;-46
2024/03/30 09:21:07;;;;;;;64.80;15.02;;;21.50;80.70;;;;;;5070217;28;20051;-47
2024/03/30 09:23:33;;;;;;;72.88;14.13;;;21.60;80.80;;;;;;5080127;28;20032;-49
2024/03/30 09:25:59;;;;;;;72.68;16.40;;;21.90;80.20;;;;;;5072730;28;20532;-44
2024/03/30 09:28:27;;;;;;;80.18;15.82;;;22.20;78.70;;;;;;5059510;28;20036;-47
2024/03/30 09:30:53;;;;;;;73.78;15.07;;;22.40;76.20;;;;;;5073300;28;20085;-43
2024/03/30 09:33:19;;;;;;;64.05;13.52;;;22.50;74.70;;;;;;5072315;28;20040;-44
2024/03/30 09:35:45;;;;;;;71.55;15.25;;;22.40;73.00;;;;;;5075014;28;20058;-42
2024/03/30 09:38:11;;;;;;;55.08;13.98;;;22.40;73.40;;;;;;5067864;28;20125;-48
2024/03/30 09:40:46;;;;;;;58.83;13.27;;;22.60;72.10;;;;;;5075795;28;20040;-42
2024/03/30 09:43:12;;;;;;;76.47;15.55;;;22.70;71.30;;;;;;5070040;28;20059;-46
2024/03/30 09:45:40;;;;;;;66.15;15.68;;;22.60;71.10;;;;;;5074162;28;20036;-45
2024/03/30 09:48:07;;;;;;;59.65;15.25;;;22.60;71.60;;;;;;5078020;28;20519;-49
2024/03/30 09:50:33;;;;;;;68.43;13.90;;;22.70;69.80;;;;;;5076991;28;20040;-45
2024/03/30 09:53:02;;;;;;;60.67;14.35;;;22.90;69.10;;;;;;5074702;28;20117;-43
2024/03/30 09:55:29;;;;;;;82.10;15.43;;;22.50;67.90;;;;;;5077922;28;20509;-46
2024/03/30 09:57:56;;;;;;;57.50;13.93;;;22.10;69.70;;;;;;5074778;28;20044;-43
2024/03/30 10:00:22;;;;;;;66.97;14.10;;;22.20;69.10;;;;;;5073543;28;20052;-43
2024/03/30 10:02:48;;;;;;;53.83;13.20;;;22.20;69.80;;;;;;5074398;28;20519;-42
2024/03/30 10:05:14;;;;;;;66.20;15.02;;;22.50;69.30;;;;;;5077369;28;20206;-47
2024/03/30 10:07:54;;;;;;;56.60;13.93;;;22.60;68.80;;;;;;5073096;28;20337;-47
2024/03/30 10:10:21;;;;;;;59.30;14.60;;;22.70;68.50;;;;;;5073144;28;20050;-43
2024/03/30 10:13:00;;;;;;;65.50;13.85;;;23.00;67.60;;;;;;5080017;28;20552;-44
2024/03/30 10:15:46;;;;;;;52.22;13.35;;;23.10;67.00;;;;;;5075787;28;20048;-46
2024/03/30 10:18:13;;;;;;;61.42;14.95;;;23.30;66.90;;;;;;5075953;28;20052;-44
2024/03/30 10:20:39;;;;;;;67.50;16.13;;;23.40;66.50;;;;;;5064580;28;20119;-48
2024/03/30 10:23:05;;;;;;;59.70;13.60;;;23.50;66.20;;;;;;5087818;28;20511;-45
2024/03/30 10:25:34;;;;;;;67.88;14.50;;;23.70;65.60;;;;;;5079282;28;20056;-46
2024/03/30 10:28:00;;;;;;;55.05;13.88;;;23.80;66.20;;;;;;5074059;28;20091;-45
2024/03/30 10:30:26;;;;;;;51.42;13.23;;;23.80;65.70;;;;;;5059819;28;20583;-43
2024/03/30 10:32:55;;;;;;;62.30;12.75;;;23.80;64.50;;;;;;5076824;28;20048;-42
2024/03/30 10:35:21;;;;;;;52.58;12.52;;;23.60;63.40;;;;;;5074874;28;20097;-46
2024/03/30 10:37:47;;;;;;;57.45;13.57;;;23.60;63.90;;;;;;5074920;28;20041;-45
2024/03/30 10:40:15;;;;;;;54.88;12.75;;;23.30;62.40;;;;;;5076045;28;20467;-47
2024/03/30 10:42:41;;;;;;;66.10;14.25;;;23.10;62.70;;;;;;5071257;28;20039;-44
2024/03/30 10:45:08;;;;;;;61.90;14.88;;;22.80;64.30;;;;;;5070602;28;20166;-46
2024/03/30 10:47:36;;;;;;;59.25;13.63;;;22.60;63.50;;;;;;5072470;28;20081;-43
2024/03/30 10:50:03;;;;;;;55.45;13.05;;;22.50;63.30;;;;;;5076431;28;20055;-46
2024/03/30 10:52:30;;;;;;;54.15;13.40;;;22.10;64.10;;;;;;5069237;28;20101;-45
2024/03/30 10:54:57;;;;;;;42.97;12.82;;;22.10;63.80;;;;;;5073196;28;20070;-48
2024/03/30 10:57:24;;;;;;;56.17;13.80;;;21.90;63.90;;;;;;5073622;28;20067;-41
2024/03/30 10:59:52;;;;;;;54.75;14.20;;;21.90;64.30;;;;;;5071977;28;20044;-46
2024/03/30 11:02:21;;;;;;;67.82;13.77;;;21.90;65.30;;;;;;5078306;28;20052;-41
2024/03/30 11:04:53;;;;;;;47.03;11.75;;;21.80;65.30;;;;;;5073073;28;20548;-44
2024/03/30 11:07:21;;;;;;;54.17;13.32;;;21.80;64.90;;;;;;5075954;28;20059;-42
2024/03/30 11:09:47;;;;;;;52.20;13.13;;;21.90;64.40;;;;;;5075497;28;20062;-44
2024/03/30 11:12:15;;;;;;;57.40;13.75;;;21.90;62.90;;;;;;5079577;28;20052;-45
2024/03/30 11:14:42;;;;;;;51.50;13.07;;;21.80;62.90;;;;;;5072452;28;20078;-45
2024/03/30 11:17:17;;;;;;;58.83;13.15;;;21.60;64.20;;;;;;5073688;28;20097;-45
2024/03/30 11:19:57;;;;;;;49.47;12.55;;;21.60;64.80;;;;;;5079819;28;20047;-44
2024/03/30 11:22:30;;;;;;;52.30;13.35;;;21.60;64.30;;;;;;5084413;28;20054;-45
2024/03/30 11:25:00;;;;;;;62.63;23.35;;;21.60;67.00;;;;;;5083478;28;20059;-43
2024/03/30 11:27:32;;;;;;;56.72;13.23;;;21.60;65.40;;;;;;5080095;28;20048;-51
2024/03/30 11:30:38;;;;;;;48.17;12.63;;;21.70;64.40;;;;;;5074075;28;20146;-42
2024/03/30 11:33:28;;;;;;;50.60;14.15;;;21.80;64.30;;;;;;5040320;28;20517;-48
2024/03/30 11:36:15;;;;;;;48.83;12.48;;;21.70;63.80;;;;;;5072781;28;20048;-43
2024/03/30 11:38:50;;;;;;;49.45;13.95;;;21.70;64.50;;;;;;5077426;28;20050;-44
2024/03/30 11:41:16;;;;;;;53.75;13.75;;;21.80;63.70;;;;;;5074190;28;20512;-43
2024/03/30 11:43:57;;;;;;;42.47;12.60;;;21.90;63.40;;;;;;5081835;28;20071;-46
2024/03/30 11:46:25;;;;;;;38.05;12.00;;;22.00;62.90;;;;;;5078030;28;20059;-51
2024/03/30 11:48:52;;;;;;;50.63;12.55;;;22.10;63.30;;;;;;5072394;28;20054;-43
2024/03/30 11:51:19;;;;;;;55.85;11.75;;;22.20;63.80;;;;;;5070398;28;20048;-41
2024/03/30 11:53:46;;;;;;;52.85;13.00;;;22.30;62.30;;;;;;5070093;28;20083;-46
2024/03/30 11:56:12;;;;;;;53.70;12.50;;;22.30;62.20;;;;;;5074973;28;20040;-42
2024/03/30 11:58:42;;;;;;;58.83;13.82;;;22.40;61.00;;;;;;5073644;28;20505;-44
2024/03/30 12:01:09;;;;;;;39.78;12.45;;;22.60;60.90;;;;;;5083177;28;20044;-42
2024/03/30 12:03:36;;;;;;;50.00;12.57;;;22.70;60.90;;;;;;5068004;28;20341;-46
2024/03/30 12:06:03;;;;;;;51.40;12.93;;;22.90;61.40;;;;;;5072472;28;20032;-41
2024/03/30 12:08:29;;;;;;;58.78;13.38;;;23.00;61.50;;;;;;5070697;28;20044;-43
2024/03/30 12:10:57;;;;;;;47.92;11.30;;;23.00;60.30;;;;;;5073719;28;20066;-46
2024/03/30 12:13:25;;;;;;;43.30;11.98;;;23.00;60.20;;;;;;5074557;28;20051;-44
2024/03/30 12:15:51;;;;;;;55.63;12.90;;;22.90;59.90;;;;;;5074240;28;20108;-47
2024/03/30 12:18:18;;;;;;;49.58;11.20;;;22.70;60.20;;;;;;5075080;28;20505;-47
2024/03/30 12:20:46;;;;;;;46.25;12.38;;;22.60;61.20;;;;;;5079498;28;20048;-47
2024/03/30 12:23:12;;;;;;;48.58;11.07;;;22.70;60.30;;;;;;5077111;28;20539;-42
2024/03/30 12:25:40;;;;;;;58.67;12.27;;;22.40;60.60;;;;;;5079239;28;20094;-41
2024/03/30 12:28:06;;;;;;;44.50;12.32;;;22.40;61.00;;;;;;5078339;28;20057;-42
2024/03/30 12:30:44;;;;;;;44.17;11.80;;;22.30;61.00;;;;;;5078266;28;20493;-44